createdAt,value
2018-07-01T00:01:14.089Z,5.20
2018-07-01T00:03:41.605Z,3.74
2018-07-01T00:06:09.862Z,5.00
2018-07-01T00:08:38.251Z,5.26
2018-07-01T00:11:06.512Z,5.54
2018-07-01T00:13:34.775Z,4.88
2018-07-01T00:16:03.066Z,4.52
2018-07-01T00:18:31.363Z,4.98
2018-07-01T00:20:59.622Z,5.02
2018-07-01T00:23:28.700Z,4.92
2018-07-01T00:25:57.005Z,4.58
2018-07-01T00:28:24.549Z,4.02
2018-07-01T00:30:52.821Z,4.70
2018-07-01T00:33:21.076Z,4.40
2018-07-01T00:35:49.372Z,4.08
2018-07-01T00:38:17.624Z,4.00
2018-07-01T00:40:45.891Z,4.26
2018-07-01T00:43:14.180Z,4.52
2018-07-01T00:45:42.453Z,3.74
2018-07-01T00:48:10.751Z,4.10
2018-07-01T00:50:39.050Z,3.92
2018-07-01T00:53:07.310Z,4.46
2018-07-01T00:55:35.580Z,3.80
2018-07-01T00:58:03.845Z,3.10
2018-07-01T01:00:32.136Z,2.84
2018-07-01T01:03:00.392Z,2.60
2018-07-01T01:05:28.689Z,3.00
2018-07-01T01:07:56.947Z,2.82
2018-07-01T01:10:25.265Z,3.28
2018-07-01T01:12:53.529Z,3.16
2018-07-01T01:15:21.788Z,3.10
2018-07-01T01:17:51.325Z,3.72
2018-07-01T01:20:20.619Z,2.78
2018-07-01T01:22:50.390Z,3.02
2018-07-01T01:25:19.712Z,3.54
2018-07-01T01:27:48.007Z,3.00
2018-07-01T01:30:16.264Z,2.78
2018-07-01T01:32:44.557Z,3.80
2018-07-01T01:35:13.720Z,3.32
2018-07-01T01:37:42.026Z,3.36
2018-07-01T01:40:10.288Z,3.30
2018-07-01T01:42:38.569Z,3.58
2018-07-01T01:45:09.843Z,4.12
2018-07-01T01:47:38.128Z,3.20
2018-07-01T01:50:06.428Z,4.02
2018-07-01T01:52:34.692Z,3.42
2018-07-01T01:55:03.875Z,4.12
2018-07-01T01:57:31.395Z,4.18
2018-07-01T01:59:59.658Z,4.66
2018-07-01T02:02:28.591Z,4.02
2018-07-01T02:04:57.749Z,3.54
2018-07-01T02:07:26.827Z,3.82
2018-07-01T02:09:55.097Z,4.10
2018-07-01T02:12:23.361Z,4.42
2018-07-01T02:14:52.617Z,4.40
2018-07-01T02:17:21.250Z,5.26
2018-07-01T02:19:50.421Z,5.02
2018-07-01T02:22:19.693Z,5.76
2018-07-01T02:24:47.992Z,6.50
2018-07-01T02:27:16.266Z,5.98
2018-07-01T02:29:44.577Z,5.30
2018-07-01T02:32:12.847Z,4.94
2018-07-01T02:34:41.123Z,5.22
2018-07-01T02:37:09.413Z,5.36
2018-07-01T02:39:37.673Z,4.00
2018-07-01T02:42:05.929Z,4.28
2018-07-01T02:44:34.220Z,4.56
2018-07-01T02:47:02.491Z,5.92
2018-07-01T02:49:30.786Z,3.76
2018-07-01T02:51:59.037Z,4.38
2018-07-01T02:54:30.453Z,4.12
2018-07-01T02:56:58.722Z,5.02
2018-07-01T02:59:27.009Z,4.44
2018-07-01T03:01:55.272Z,4.70
2018-07-01T03:04:23.573Z,4.52
2018-07-01T03:06:51.841Z,4.56
2018-07-01T03:09:26.599Z,4.14
2018-07-01T03:11:54.874Z,3.64
2018-07-01T03:14:25.056Z,4.48
2018-07-01T03:16:52.582Z,4.32
2018-07-01T03:19:20.847Z,4.40
2018-07-01T03:21:50.034Z,4.40
2018-07-01T03:24:18.984Z,4.06
2018-07-01T03:26:47.264Z,4.12
2018-07-01T03:29:15.525Z,4.14
2018-07-01T03:31:43.809Z,4.20
2018-07-01T03:34:12.090Z,4.18
2018-07-01T03:36:40.377Z,4.68
2018-07-01T03:39:08.628Z,4.40
2018-07-01T03:41:36.921Z,3.72
2018-07-01T03:44:05.213Z,3.62
2018-07-01T03:46:33.517Z,4.34
2018-07-01T03:49:01.816Z,3.88
2018-07-01T03:51:30.113Z,3.96
2018-07-01T03:53:58.921Z,3.78
2018-07-01T03:56:27.214Z,4.06
2018-07-01T03:58:55.494Z,4.26
2018-07-01T04:01:23.788Z,4.00
2018-07-01T04:03:52.072Z,4.00
2018-07-01T04:06:21.098Z,4.10
2018-07-01T04:08:49.797Z,3.90
2018-07-01T04:11:19.867Z,4.00
2018-07-01T04:13:48.950Z,4.22
2018-07-01T04:16:17.213Z,3.92
2018-07-01T04:18:45.477Z,3.78
2018-07-01T04:21:13.768Z,4.30
2018-07-01T04:23:42.053Z,4.06
2018-07-01T04:26:10.314Z,4.52
2018-07-01T04:28:38.610Z,4.50
2018-07-01T04:31:06.903Z,4.06
2018-07-01T04:33:35.137Z,4.40
2018-07-01T04:36:03.434Z,4.18
2018-07-01T04:38:30.920Z,4.28
2018-07-01T04:40:59.185Z,4.12
2018-07-01T04:43:28.620Z,4.18
2018-07-01T04:45:57.770Z,4.16
2018-07-01T04:48:26.783Z,3.40
2018-07-01T04:50:55.054Z,3.50
2018-07-01T04:53:23.301Z,4.76
2018-07-01T04:55:51.610Z,3.74
2018-07-01T04:58:20.947Z,3.40
2018-07-01T05:00:50.248Z,3.60
2018-07-01T05:03:18.543Z,3.52
2018-07-01T05:05:46.861Z,3.32
2018-07-01T05:08:15.159Z,3.48
2018-07-01T05:10:43.415Z,3.52
2018-07-01T05:13:11.692Z,3.00
2018-07-01T05:15:39.977Z,3.20
2018-07-01T05:18:08.245Z,3.36
2018-07-01T05:20:36.541Z,3.82
2018-07-01T05:23:04.825Z,3.96
2018-07-01T05:25:33.129Z,4.36
2018-07-01T05:28:01.381Z,4.48
2018-07-01T05:30:29.637Z,4.28
2018-07-01T05:32:59.160Z,4.02
2018-07-01T05:35:28.463Z,4.56
2018-07-01T05:37:57.456Z,4.42
2018-07-01T05:40:25.713Z,4.62
2018-07-01T05:42:53.310Z,4.24
2018-07-01T05:45:22.538Z,4.02
2018-07-01T05:47:50.831Z,5.34
2018-07-01T05:50:19.965Z,6.20
2018-07-01T05:52:48.953Z,3.82
2018-07-01T05:55:17.249Z,5.08
2018-07-01T05:57:45.538Z,4.22
2018-07-01T06:00:13.802Z,3.62
2018-07-01T06:02:42.093Z,4.48
2018-07-01T06:05:10.366Z,3.96
2018-07-01T06:07:38.635Z,4.20
2018-07-01T06:10:08.862Z,3.94
2018-07-01T06:12:37.150Z,4.10
2018-07-01T06:15:05.442Z,4.14
2018-07-01T06:17:33.706Z,3.50
2018-07-01T06:20:01.998Z,3.92
2018-07-01T06:22:30.265Z,3.74
2018-07-01T06:24:58.560Z,4.02
2018-07-01T06:27:27.713Z,3.92
2018-07-01T06:29:56.654Z,4.98
2018-07-01T06:32:24.911Z,4.06
2018-07-01T06:34:53.193Z,4.10
2018-07-01T06:37:21.478Z,4.02
2018-07-01T06:39:50.815Z,3.36
2018-07-01T06:42:19.668Z,3.44
2018-07-01T06:44:47.926Z,3.10
2018-07-01T06:47:16.205Z,2.92
2018-07-01T06:49:44.469Z,2.68
2018-07-01T06:52:12.764Z,3.08
2018-07-01T06:54:41.031Z,2.48
2018-07-01T06:57:09.289Z,2.76
2018-07-01T06:59:37.578Z,2.24
2018-07-01T07:02:06.788Z,2.78
2018-07-01T07:04:38.424Z,2.52
2018-07-01T07:07:06.685Z,2.78
2018-07-01T07:09:35.420Z,2.40
2018-07-01T07:12:03.705Z,3.40
2018-07-01T07:14:32.933Z,2.98
2018-07-01T07:17:01.222Z,2.68
2018-07-01T07:19:29.482Z,2.96
2018-07-01T07:21:59.150Z,3.08
2018-07-01T07:24:28.571Z,2.78
2018-07-01T07:26:57.678Z,3.28
2018-07-01T07:29:25.938Z,2.70
2018-07-01T07:31:54.969Z,2.60
2018-07-01T07:34:24.169Z,2.92
2018-07-01T07:36:52.425Z,2.70
2018-07-01T07:39:22.490Z,2.60
2018-07-01T07:41:51.556Z,2.42
2018-07-01T07:44:22.990Z,3.16
2018-07-01T07:46:51.277Z,2.60
2018-07-01T07:49:20.157Z,2.40
2018-07-01T07:51:48.467Z,2.56
2018-07-01T07:54:15.970Z,2.68
2018-07-01T07:56:44.230Z,3.34
2018-07-01T07:59:12.537Z,3.10
2018-07-01T08:01:40.784Z,2.80
2018-07-01T08:04:08.297Z,2.44
2018-07-01T08:06:36.585Z,2.88
2018-07-01T08:09:04.877Z,1.94
2018-07-01T08:11:33.155Z,1.82
2018-07-01T08:14:01.450Z,2.60
2018-07-01T08:16:29.718Z,2.16
2018-07-01T08:18:57.249Z,2.42
2018-07-01T08:21:25.537Z,2.58
2018-07-01T08:23:53.841Z,1.94
2018-07-01T08:26:21.337Z,2.34
2018-07-01T08:28:49.648Z,2.10
2018-07-01T08:31:17.906Z,2.08
2018-07-01T08:33:46.188Z,2.52
2018-07-01T08:36:14.457Z,2.10
2018-07-01T08:38:42.757Z,2.20
2018-07-01T08:41:11.024Z,2.08
2018-07-01T08:43:39.282Z,1.68
2018-07-01T08:46:07.569Z,2.12
2018-07-01T08:48:35.861Z,1.90
2018-07-01T08:51:04.149Z,2.00
2018-07-01T08:53:32.411Z,2.20
2018-07-01T08:56:00.709Z,2.04
2018-07-01T08:58:28.969Z,2.04
2018-07-01T09:00:57.261Z,1.98
2018-07-01T09:03:25.516Z,1.84
2018-07-01T09:05:53.813Z,1.90
2018-07-01T09:08:22.065Z,1.80
2018-07-01T09:10:51.585Z,1.60
2018-07-01T09:13:19.848Z,2.12
2018-07-01T09:15:48.105Z,2.24
2018-07-01T09:18:16.398Z,2.00
2018-07-01T09:20:44.658Z,1.94
2018-07-01T09:23:12.953Z,1.98
2018-07-01T09:25:40.441Z,1.80
2018-07-01T09:28:08.705Z,1.94
2018-07-01T09:30:37.005Z,2.00
2018-07-01T09:33:05.277Z,2.30
2018-07-01T09:35:33.578Z,2.26
2018-07-01T09:38:01.845Z,2.00
2018-07-01T09:40:30.128Z,1.98
2018-07-01T09:42:58.384Z,1.92
2018-07-01T09:45:25.916Z,2.88
2018-07-01T09:47:54.185Z,2.00
2018-07-01T09:50:22.548Z,1.90
2018-07-01T09:52:51.909Z,1.82
2018-07-01T09:55:21.545Z,1.96
2018-07-01T09:57:50.413Z,1.98
2018-07-01T10:00:19.020Z,2.06
2018-07-01T10:02:47.275Z,1.92
2018-07-01T10:05:15.581Z,1.90
2018-07-01T10:07:43.851Z,2.00
2018-07-01T10:10:12.170Z,1.68
2018-07-01T10:12:40.441Z,2.20
2018-07-01T10:15:08.733Z,1.90
2018-07-01T10:17:37.041Z,1.93
2018-07-01T10:20:05.305Z,1.76
2018-07-01T10:22:33.565Z,1.96
2018-07-01T10:25:01.856Z,1.90
2018-07-01T10:27:30.155Z,1.98
2018-07-01T10:29:58.448Z,2.16
2018-07-01T10:32:27.370Z,2.06
2018-07-01T10:34:55.620Z,2.14
2018-07-01T10:37:23.873Z,2.28
2018-07-01T10:39:52.137Z,2.44
2018-07-01T10:42:21.079Z,1.74
2018-07-01T10:44:50.264Z,2.10
2018-07-01T10:47:18.541Z,1.94
2018-07-01T10:49:46.814Z,2.38
2018-07-01T10:52:14.327Z,1.84
2018-07-01T10:54:42.630Z,1.76
2018-07-01T10:57:10.913Z,1.92
2018-07-01T10:59:39.170Z,1.86
2018-07-01T11:02:07.459Z,1.96
2018-07-01T11:04:35.749Z,2.18
2018-07-01T11:07:04.039Z,2.10
2018-07-01T11:09:32.300Z,2.10
2018-07-01T11:12:00.581Z,2.00
2018-07-01T11:14:28.845Z,1.64
2018-07-01T11:16:57.753Z,2.10
2018-07-01T11:19:25.256Z,2.28
2018-07-01T11:21:53.546Z,2.04
2018-07-01T11:24:21.038Z,2.22
2018-07-01T11:26:50.067Z,2.18
2018-07-01T11:29:18.176Z,1.78
2018-07-01T11:31:46.472Z,1.94
2018-07-01T11:34:13.970Z,2.50
2018-07-01T11:36:41.509Z,2.20
2018-07-01T11:39:09.780Z,2.60
2018-07-01T11:41:38.066Z,2.24
2018-07-01T11:44:06.335Z,2.10
2018-07-01T11:46:34.617Z,2.42
2018-07-01T11:49:02.931Z,2.34
2018-07-01T11:51:31.196Z,2.30
2018-07-01T11:53:59.460Z,2.54
2018-07-01T11:56:28.381Z,2.50
2018-07-01T11:58:57.332Z,2.12
2018-07-01T12:01:25.618Z,2.36
2018-07-01T12:03:53.873Z,2.28
2018-07-01T12:06:22.157Z,2.66
2018-07-01T12:08:51.098Z,2.58
2018-07-01T12:11:20.253Z,3.02
2018-07-01T12:13:48.511Z,2.34
2018-07-01T12:16:16.769Z,2.34
2018-07-01T12:18:45.057Z,2.06
2018-07-01T12:21:13.332Z,2.34
2018-07-01T12:23:41.685Z,2.20
2018-07-01T12:26:09.909Z,2.48
2018-07-01T12:28:38.223Z,2.20
2018-07-01T12:31:06.468Z,3.30
2018-07-01T12:33:34.761Z,2.80
2018-07-01T12:36:03.044Z,2.62
2018-07-01T12:38:31.344Z,2.14
2018-07-01T12:40:59.649Z,2.08
2018-07-01T12:43:28.605Z,2.32
2018-07-01T12:45:57.695Z,1.94
2018-07-01T12:48:25.951Z,2.20
2018-07-01T12:50:54.256Z,2.10
2018-07-01T12:53:22.542Z,2.26
2018-07-01T12:55:51.717Z,2.30
2018-07-01T12:58:19.838Z,2.38
2018-07-01T13:00:48.098Z,2.58
2018-07-01T13:03:16.389Z,2.68
2018-07-01T13:05:44.681Z,2.26
2018-07-01T13:08:12.941Z,2.34
2018-07-01T13:10:41.242Z,2.40
2018-07-01T13:13:09.494Z,2.28
2018-07-01T13:15:37.762Z,2.10
2018-07-01T13:18:06.057Z,2.62
2018-07-01T13:20:34.313Z,2.36
2018-07-01T13:23:02.612Z,2.20
2018-07-01T13:25:30.875Z,2.28
2018-07-01T13:27:59.165Z,2.30
2018-07-01T13:30:27.428Z,2.50
2018-07-01T13:32:55.714Z,2.30
2018-07-01T13:35:23.969Z,2.96
2018-07-01T13:37:52.269Z,2.72
2018-07-01T13:40:21.377Z,2.40
2018-07-01T13:42:50.706Z,2.26
2018-07-01T13:45:18.950Z,2.42
2018-07-01T13:47:47.248Z,2.20
2018-07-01T13:50:15.514Z,2.30
2018-07-01T13:52:43.801Z,2.12
2018-07-01T13:55:12.057Z,2.42
2018-07-01T13:57:40.357Z,1.88
2018-07-01T14:00:08.642Z,2.50
2018-07-01T14:02:36.905Z,2.20
2018-07-01T14:05:05.195Z,2.52
2018-07-01T14:07:33.454Z,2.50
2018-07-01T14:10:01.746Z,2.24
2018-07-01T14:12:30.022Z,2.40
2018-07-01T14:14:59.036Z,2.34
2018-07-01T14:17:27.593Z,2.88
2018-07-01T14:19:55.850Z,2.28
2018-07-01T14:22:24.126Z,2.62
2018-07-01T14:24:52.386Z,3.02
2018-07-01T14:27:21.762Z,2.58
2018-07-01T14:29:50.873Z,2.90
2018-07-01T14:32:20.271Z,2.40
2018-07-01T14:34:49.839Z,2.26
2018-07-01T14:37:18.109Z,2.30
2018-07-01T14:39:46.396Z,2.78
2018-07-01T14:42:14.657Z,2.64
2018-07-01T14:44:42.172Z,2.50
2018-07-01T14:47:10.550Z,2.32
2018-07-01T14:49:38.837Z,2.16
2018-07-01T14:52:07.118Z,2.58
2018-07-01T14:54:35.390Z,2.52
2018-07-01T14:57:03.694Z,2.04
2018-07-01T14:59:31.956Z,2.48
2018-07-01T15:02:00.246Z,2.20
2018-07-01T15:04:28.504Z,2.60
2018-07-01T15:06:56.842Z,2.26
2018-07-01T15:09:25.190Z,1.90
2018-07-01T15:11:53.479Z,2.48
2018-07-01T15:14:21.722Z,2.54
2018-07-01T15:16:50.914Z,2.36
2018-07-01T15:19:19.969Z,2.10
2018-07-01T15:21:48.247Z,2.58
2018-07-01T15:24:16.518Z,2.76
2018-07-01T15:26:44.802Z,2.34
2018-07-01T15:29:13.068Z,2.46
2018-07-01T15:31:41.366Z,2.30
2018-07-01T15:34:09.625Z,3.08
2018-07-01T15:36:37.921Z,2.50
2018-07-01T15:39:06.235Z,2.22
2018-07-01T15:41:34.521Z,1.98
2018-07-01T15:44:02.782Z,2.12
2018-07-01T15:46:31.074Z,2.60
2018-07-01T15:48:59.334Z,2.22
2018-07-01T15:51:28.333Z,2.36
2018-07-01T15:53:55.841Z,2.52
2018-07-01T15:56:24.136Z,2.50
2018-07-01T15:58:52.397Z,2.48
2018-07-01T16:01:21.665Z,2.70
2018-07-01T16:03:49.954Z,2.32
2018-07-01T16:06:18.220Z,2.14
2018-07-01T16:08:46.513Z,2.10
2018-07-01T16:11:14.773Z,2.30
2018-07-01T16:13:42.298Z,2.24
2018-07-01T16:16:10.564Z,3.02
2018-07-01T16:18:38.859Z,2.28
2018-07-01T16:21:07.161Z,2.00
2018-07-01T16:23:35.421Z,2.00
2018-07-01T16:26:03.777Z,1.84
2018-07-01T16:28:31.994Z,4.54
2018-07-01T16:31:00.282Z,3.20
2018-07-01T16:33:28.988Z,16.92
2018-07-01T16:35:58.245Z,11.04
2018-07-01T16:38:26.996Z,10.88
2018-07-01T16:40:55.288Z,10.84
2018-07-01T16:43:22.798Z,5.18
2018-07-01T16:45:51.583Z,3.20
2018-07-01T16:48:19.844Z,2.78
2018-07-01T16:50:48.145Z,2.24
2018-07-01T16:53:16.406Z,2.28
2018-07-01T16:55:44.693Z,2.08
2018-07-01T16:58:12.978Z,1.92
2018-07-01T17:00:41.272Z,1.90
2018-07-01T17:03:09.547Z,1.90
2018-07-01T17:05:37.882Z,2.20
2018-07-01T17:08:06.112Z,2.32
2018-07-01T17:10:34.407Z,2.48
2018-07-01T17:13:02.671Z,2.34
2018-07-01T17:15:30.934Z,1.90
2018-07-01T17:17:59.224Z,2.16
2018-07-01T17:20:27.484Z,2.14
2018-07-01T17:22:55.777Z,2.26
2018-07-01T17:25:24.037Z,2.54
2018-07-01T17:27:52.327Z,2.60
2018-07-01T17:30:21.723Z,2.38
2018-07-01T17:32:55.676Z,2.08
2018-07-01T17:35:24.012Z,2.36
2018-07-01T17:37:57.261Z,2.30
2018-07-01T17:40:25.557Z,2.32
2018-07-01T17:42:53.853Z,2.26
2018-07-01T17:45:22.124Z,2.38
2018-07-01T17:48:04.114Z,2.54
2018-07-01T17:50:32.398Z,2.48
2018-07-01T17:53:00.689Z,2.24
2018-07-01T17:55:28.989Z,2.30
2018-07-01T17:58:01.004Z,2.00
2018-07-01T18:00:29.255Z,2.22
2018-07-01T18:02:57.540Z,2.00
2018-07-01T18:05:25.837Z,2.40
2018-07-01T18:07:54.113Z,2.32
2018-07-01T18:10:22.397Z,2.50
2018-07-01T18:12:51.358Z,2.22
2018-07-01T18:15:20.540Z,2.46
2018-07-01T18:17:49.569Z,2.50
2018-07-01T18:20:17.832Z,2.28
2018-07-01T18:23:18.235Z,1.88
2018-07-01T18:25:14.415Z,2.02
2018-07-01T18:27:43.532Z,2.10
2018-07-01T18:30:11.024Z,2.50
2018-07-01T18:32:39.286Z,2.04
2018-07-01T18:35:07.578Z,1.80
2018-07-01T18:37:35.833Z,2.20
2018-07-01T18:40:04.132Z,2.58
2018-07-01T18:42:32.393Z,2.10
2018-07-01T18:45:00.683Z,1.98
2018-07-01T18:47:29.273Z,2.00
2018-07-01T18:49:57.577Z,2.18
2018-07-01T18:52:25.846Z,2.54
2018-07-01T18:54:54.132Z,2.48
2018-07-01T18:57:22.424Z,1.82
2018-07-01T18:59:51.774Z,2.26
2018-07-01T19:02:20.764Z,1.98
2018-07-01T19:04:50.106Z,2.28
2018-07-01T19:07:18.420Z,2.10
2018-07-01T19:09:47.770Z,2.20
2018-07-01T19:12:15.932Z,2.36
2018-07-01T19:14:44.232Z,2.72
2018-07-01T19:17:12.489Z,1.80
2018-07-01T19:19:40.752Z,2.48
2018-07-01T19:22:09.042Z,2.18
2018-07-01T19:24:37.303Z,1.84
2018-07-01T19:27:05.593Z,2.32
2018-07-01T19:29:33.852Z,2.10
2018-07-01T19:32:02.147Z,2.30
2018-07-01T19:34:30.405Z,2.12
2018-07-01T19:36:58.702Z,2.10
2018-07-01T19:39:26.973Z,2.34
2018-07-01T19:41:55.261Z,2.46
2018-07-01T19:44:23.517Z,3.04
2018-07-01T19:46:51.818Z,2.04
2018-07-01T19:49:20.402Z,2.96
2018-07-01T19:51:49.380Z,2.14
2018-07-01T19:54:17.670Z,2.26
2018-07-01T19:56:46.392Z,2.32
2018-07-01T19:59:14.650Z,2.40
2018-07-01T20:01:42.944Z,2.10
2018-07-01T20:04:10.435Z,2.38
2018-07-01T20:06:38.721Z,2.20
2018-07-01T20:09:07.009Z,2.62
2018-07-01T20:11:35.258Z,2.42
2018-07-01T20:14:03.544Z,2.22
2018-07-01T20:16:31.801Z,2.20
2018-07-01T20:19:00.101Z,2.22
2018-07-01T20:21:28.359Z,2.18
2018-07-01T20:23:56.614Z,2.20
2018-07-01T20:26:24.900Z,2.36
2018-07-01T20:28:53.169Z,2.44
2018-07-01T20:31:21.457Z,2.90
2018-07-01T20:33:50.208Z,2.40
2018-07-01T20:36:18.510Z,2.38
2018-07-01T20:38:46.781Z,2.38
2018-07-01T20:41:15.086Z,2.44
2018-07-01T20:43:43.346Z,2.16
2018-07-01T20:46:11.641Z,2.48
2018-07-01T20:48:39.905Z,2.60
2018-07-01T20:51:08.198Z,3.10
2018-07-01T20:53:36.480Z,2.40
2018-07-01T20:56:04.732Z,2.40
2018-07-01T20:58:33.041Z,2.40
2018-07-01T21:01:01.298Z,2.58
2018-07-01T21:03:29.573Z,3.20
2018-07-01T21:05:57.850Z,2.34
2018-07-01T21:08:26.156Z,3.10
2018-07-01T21:10:54.414Z,2.60
2018-07-01T21:13:22.675Z,3.20
2018-07-01T21:15:53.297Z,2.74
2018-07-01T21:18:21.557Z,3.30
2018-07-01T21:20:49.840Z,2.80
2018-07-01T21:23:18.103Z,3.02
2018-07-01T21:25:47.376Z,3.12
2018-07-01T21:28:16.495Z,3.18
2018-07-01T21:30:44.793Z,2.82
2018-07-01T21:33:13.056Z,2.82
2018-07-01T21:35:41.346Z,2.76
2018-07-01T21:38:09.669Z,2.82
2018-07-01T21:40:37.944Z,3.18
2018-07-01T21:43:06.253Z,3.50
2018-07-01T21:45:34.527Z,2.86
2018-07-01T21:48:02.073Z,2.92
2018-07-01T21:50:30.369Z,2.98
2018-07-01T21:52:58.672Z,2.62
2018-07-01T21:55:26.945Z,4.06
2018-07-01T21:57:55.258Z,2.52
2018-07-01T22:00:23.535Z,2.14
2018-07-01T22:02:51.073Z,2.62
2018-07-01T22:05:20.400Z,2.60
2018-07-01T22:07:49.894Z,2.70
2018-07-01T22:10:18.237Z,2.44
2018-07-01T22:12:48.469Z,2.30
2018-07-01T22:15:32.088Z,2.62
2018-07-01T22:17:59.599Z,2.66
2018-07-01T22:20:27.873Z,3.04
2018-07-01T22:22:56.184Z,2.88
2018-07-01T22:25:24.473Z,3.12
2018-07-01T22:27:52.762Z,2.74
2018-07-01T22:30:21.070Z,2.84
2018-07-01T22:32:50.289Z,2.66
2018-07-01T22:35:19.351Z,2.78
2018-07-01T22:37:49.603Z,3.04
2018-07-01T22:40:17.902Z,2.92
2018-07-01T22:42:47.184Z,3.96
2018-07-01T22:45:15.549Z,2.78
2018-07-01T22:47:44.746Z,2.68
2018-07-01T22:50:13.045Z,3.30
2018-07-01T22:52:41.329Z,2.72
2018-07-01T22:55:09.629Z,2.76
2018-07-01T22:57:37.933Z,2.72
2018-07-01T23:00:06.233Z,3.06
2018-07-01T23:02:47.825Z,2.84
2018-07-01T23:05:17.278Z,3.02
2018-07-01T23:07:45.549Z,2.32
2018-07-01T23:10:13.854Z,2.90
2018-07-01T23:12:42.126Z,3.36
2018-07-01T23:15:10.393Z,3.00
2018-07-01T23:17:38.731Z,3.04
2018-07-01T23:20:07.013Z,3.26
2018-07-01T23:22:35.286Z,3.24
2018-07-01T23:25:03.616Z,3.30
2018-07-01T23:27:31.861Z,4.28
2018-07-01T23:30:00.154Z,5.04
2018-07-01T23:32:28.472Z,5.04
2018-07-01T23:34:56.761Z,5.62
2018-07-01T23:37:25.069Z,5.52
2018-07-01T23:39:53.349Z,7.22
2018-07-01T23:42:21.681Z,8.06
2018-07-01T23:44:51.229Z,7.96
2018-07-01T23:47:20.401Z,6.66
2018-07-01T23:49:49.558Z,6.88
2018-07-01T23:52:17.865Z,6.28
2018-07-01T23:54:47.244Z,6.02
2018-07-01T23:57:15.522Z,7.34
2018-07-01T23:59:43.833Z,6.22
